createdAt,value
2019-03-29T00:01:06.622Z,3.56
2019-03-29T00:03:32.931Z,3.47
2019-03-29T00:05:59.233Z,3.42
2019-03-29T00:08:25.541Z,3.39
2019-03-29T00:10:51.875Z,3.37
2019-03-29T00:13:18.202Z,3.30
2019-03-29T00:15:44.538Z,3.21
2019-03-29T00:18:10.837Z,3.15
2019-03-29T00:20:37.146Z,3.16
2019-03-29T00:23:03.446Z,3.12
2019-03-29T00:25:29.761Z,2.86
2019-03-29T00:27:56.065Z,2.59
2019-03-29T00:30:22.382Z,2.50
2019-03-29T00:32:48.683Z,2.56
2019-03-29T00:35:14.987Z,2.49
2019-03-29T00:37:52.719Z,2.58
2019-03-29T00:40:07.613Z,2.38
2019-03-29T00:42:33.970Z,2.19
2019-03-29T00:45:00.404Z,2.13
2019-03-29T00:47:26.578Z,2.10
2019-03-29T00:49:52.887Z,2.14
2019-03-29T00:52:19.183Z,2.32
2019-03-29T00:54:45.483Z,2.57
2019-03-29T00:57:11.785Z,2.65
2019-03-29T00:59:38.090Z,2.79
2019-03-29T01:02:04.418Z,3.01
2019-03-29T01:04:30.719Z,2.99
2019-03-29T01:06:57.022Z,3.05
2019-03-29T01:09:23.327Z,2.96
2019-03-29T01:11:49.626Z,2.80
2019-03-29T01:14:16.277Z,2.80
2019-03-29T01:16:42.233Z,2.95
2019-03-29T01:19:08.543Z,2.81
2019-03-29T01:21:34.849Z,2.59
2019-03-29T01:24:01.157Z,2.49
2019-03-29T01:26:27.476Z,2.42
2019-03-29T01:28:53.801Z,2.45
2019-03-29T01:31:20.108Z,2.43
2019-03-29T01:33:46.405Z,2.36
2019-03-29T01:36:12.712Z,2.30
2019-03-29T01:38:39.019Z,2.19
2019-03-29T01:41:05.327Z,2.15
2019-03-29T01:43:31.627Z,2.01
2019-03-29T01:45:57.931Z,1.92
2019-03-29T01:48:24.231Z,1.84
2019-03-29T01:50:50.546Z,1.90
2019-03-29T01:53:16.847Z,1.81
2019-03-29T01:55:43.151Z,1.73
2019-03-29T01:58:09.466Z,1.78
2019-03-29T02:00:36.265Z,1.70
2019-03-29T02:03:02.749Z,1.64
2019-03-29T02:05:29.050Z,1.75
2019-03-29T02:07:55.355Z,1.72
2019-03-29T02:10:22.757Z,1.61
2019-03-29T02:12:48.044Z,1.74
2019-03-29T02:15:14.345Z,1.74
2019-03-29T02:17:40.645Z,1.84
2019-03-29T02:20:06.950Z,1.83
2019-03-29T02:22:33.254Z,1.67
2019-03-29T02:24:59.563Z,1.80
2019-03-29T02:27:26.436Z,1.86
2019-03-29T02:29:52.172Z,1.93
2019-03-29T02:32:18.480Z,2.14
2019-03-29T02:34:44.781Z,2.19
2019-03-29T02:37:11.093Z,2.29
2019-03-29T02:39:37.401Z,2.24
2019-03-29T02:42:03.710Z,1.95
2019-03-29T02:44:30.012Z,1.78
2019-03-29T02:46:56.310Z,1.82
2019-03-29T02:49:22.614Z,1.65
2019-03-29T02:51:48.922Z,1.49
2019-03-29T02:54:15.218Z,1.41
2019-03-29T02:56:41.703Z,1.43
2019-03-29T02:59:08.013Z,1.49
2019-03-29T03:01:34.319Z,1.44
2019-03-29T03:04:00.620Z,1.39
2019-03-29T03:06:26.945Z,1.49
2019-03-29T03:08:53.249Z,1.44
2019-03-29T03:11:19.569Z,1.33
2019-03-29T03:13:45.855Z,1.26
2019-03-29T03:16:12.213Z,1.56
2019-03-29T03:18:38.516Z,1.52
2019-03-29T03:21:04.824Z,1.42
2019-03-29T03:23:31.133Z,1.58
2019-03-29T03:25:57.435Z,1.55
2019-03-29T03:28:23.836Z,1.39
2019-03-29T03:30:50.148Z,1.25
2019-03-29T03:33:16.548Z,1.29
2019-03-29T03:35:42.809Z,1.35
2019-03-29T03:38:09.110Z,1.36
2019-03-29T03:40:35.420Z,1.48
2019-03-29T03:43:01.726Z,1.52
2019-03-29T03:45:28.034Z,1.49
2019-03-29T03:47:54.337Z,1.62
2019-03-29T03:50:20.639Z,1.74
2019-03-29T03:52:46.969Z,1.49
2019-03-29T03:55:13.305Z,1.45
2019-03-29T03:57:39.594Z,1.67
2019-03-29T04:00:05.965Z,1.78
2019-03-29T04:02:32.266Z,1.79
2019-03-29T04:04:58.576Z,1.63
2019-03-29T04:07:24.888Z,1.52
2019-03-29T04:09:51.202Z,1.29
2019-03-29T04:12:17.512Z,1.27
2019-03-29T04:14:43.831Z,1.26
2019-03-29T04:17:10.136Z,1.35
2019-03-29T04:19:36.469Z,1.46
2019-03-29T04:22:02.788Z,1.51
2019-03-29T04:24:29.097Z,1.58
2019-03-29T04:26:55.448Z,1.67
2019-03-29T04:29:21.753Z,1.60
2019-03-29T04:31:48.054Z,1.76
2019-03-29T04:34:14.365Z,1.97
2019-03-29T04:36:40.931Z,2.15
2019-03-29T04:39:07.234Z,2.39
2019-03-29T04:41:33.536Z,2.58
2019-03-29T04:43:59.839Z,2.72
2019-03-29T04:46:26.158Z,2.60
2019-03-29T04:48:52.452Z,2.59
2019-03-29T04:51:18.759Z,2.65
2019-03-29T04:53:45.057Z,2.75
2019-03-29T04:56:11.370Z,2.86
2019-03-29T04:58:37.676Z,3.21
2019-03-29T05:01:03.993Z,3.15
2019-03-29T05:03:30.299Z,3.08
2019-03-29T05:05:56.608Z,3.05
2019-03-29T05:08:22.907Z,3.31
2019-03-29T05:10:49.212Z,3.57
2019-03-29T05:13:15.521Z,3.84
2019-03-29T05:15:41.835Z,3.81
2019-03-29T05:18:08.152Z,3.93
2019-03-29T05:20:34.491Z,4.02
2019-03-29T05:23:00.801Z,4.15
2019-03-29T05:25:27.104Z,4.13
2019-03-29T05:27:53.440Z,4.02
2019-03-29T05:30:19.743Z,3.96
2019-03-29T05:32:46.055Z,4.26
2019-03-29T05:35:12.356Z,4.48
2019-03-29T05:37:38.660Z,4.52
2019-03-29T05:40:04.971Z,4.59
2019-03-29T05:42:31.275Z,4.39
2019-03-29T05:44:57.590Z,4.46
2019-03-29T05:47:23.914Z,4.87
2019-03-29T05:49:50.238Z,5.39
2019-03-29T05:52:16.544Z,5.23
2019-03-29T05:54:42.857Z,5.10
2019-03-29T05:57:10.260Z,4.92
2019-03-29T05:59:36.566Z,5.38
2019-03-29T06:02:02.879Z,5.42
2019-03-29T06:04:29.186Z,5.59
2019-03-29T06:06:55.494Z,5.54
2019-03-29T06:09:21.804Z,5.91
2019-03-29T06:11:48.155Z,6.31
2019-03-29T06:14:14.481Z,6.48
2019-03-29T06:16:40.836Z,6.42
2019-03-29T06:19:07.175Z,6.72
2019-03-29T06:21:33.479Z,6.90
2019-03-29T06:23:59.826Z,6.75
2019-03-29T06:26:26.090Z,6.87
2019-03-29T06:28:52.399Z,7.01
2019-03-29T06:31:18.707Z,7.47
2019-03-29T06:33:45.047Z,7.53
2019-03-29T06:36:11.379Z,7.48
2019-03-29T06:38:37.736Z,7.55
2019-03-29T06:41:04.040Z,7.95
2019-03-29T06:43:30.345Z,8.24
2019-03-29T06:45:56.651Z,8.49
2019-03-29T06:48:22.959Z,8.26
2019-03-29T06:50:49.418Z,8.29
2019-03-29T06:53:15.593Z,8.41
2019-03-29T06:55:41.911Z,9.13
2019-03-29T06:58:08.240Z,9.42
2019-03-29T07:00:34.522Z,9.40
2019-03-29T07:03:00.859Z,9.76
2019-03-29T07:05:27.219Z,9.85
2019-03-29T07:07:53.528Z,9.42
2019-03-29T07:10:19.826Z,9.10
2019-03-29T07:12:46.148Z,9.18
2019-03-29T07:15:12.452Z,9.31
2019-03-29T07:17:38.775Z,9.59
2019-03-29T07:20:05.067Z,9.76
2019-03-29T07:22:34.509Z,10.33
2019-03-29T07:24:57.683Z,10.51
2019-03-29T07:27:24.009Z,10.52
2019-03-29T07:29:50.313Z,10.76
2019-03-29T07:32:16.619Z,11.30
2019-03-29T07:34:42.949Z,11.43
2019-03-29T07:37:09.257Z,11.25
2019-03-29T07:39:35.568Z,11.70
2019-03-29T07:42:01.875Z,11.88
2019-03-29T07:44:28.188Z,11.70
2019-03-29T07:46:54.496Z,11.70
2019-03-29T07:49:20.800Z,11.89
2019-03-29T07:51:47.115Z,12.02
2019-03-29T07:54:13.417Z,12.45
2019-03-29T07:56:39.728Z,12.50
2019-03-29T07:59:06.062Z,12.76
2019-03-29T08:01:32.686Z,12.80
2019-03-29T08:03:58.719Z,13.18
2019-03-29T08:06:25.030Z,13.09
2019-03-29T08:08:51.379Z,13.68
2019-03-29T08:11:25.994Z,13.90
2019-03-29T08:13:44.025Z,14.03
2019-03-29T08:16:10.337Z,13.98
2019-03-29T08:18:36.648Z,14.01
2019-03-29T08:21:02.963Z,14.24
2019-03-29T08:23:29.268Z,13.71
2019-03-29T08:25:55.597Z,13.30
2019-03-29T08:28:21.901Z,13.35
2019-03-29T08:30:48.213Z,13.55
2019-03-29T08:33:14.523Z,13.40
2019-03-29T08:35:40.869Z,13.72
2019-03-29T08:38:07.191Z,13.85
2019-03-29T08:40:33.521Z,13.88
2019-03-29T08:42:59.833Z,14.16
2019-03-29T08:45:26.151Z,14.24
2019-03-29T08:47:52.455Z,13.82
2019-03-29T08:50:18.806Z,14.09
2019-03-29T08:52:45.086Z,14.42
2019-03-29T08:55:11.394Z,14.78
2019-03-29T08:57:37.717Z,14.80
2019-03-29T09:00:04.026Z,14.61
2019-03-29T09:02:30.373Z,14.22
2019-03-29T09:04:56.662Z,14.35
2019-03-29T09:07:22.968Z,13.47
2019-03-29T09:09:49.281Z,13.80
2019-03-29T09:12:15.589Z,13.92
2019-03-29T09:14:41.913Z,14.68
2019-03-29T09:17:08.221Z,14.84
2019-03-29T09:19:34.637Z,14.95
2019-03-29T09:22:00.949Z,15.11
2019-03-29T09:24:27.332Z,15.46
2019-03-29T09:26:53.689Z,15.05
2019-03-29T09:29:19.944Z,15.68
2019-03-29T09:31:46.254Z,15.27
2019-03-29T09:34:12.560Z,15.08
2019-03-29T09:36:38.881Z,14.85
2019-03-29T09:39:05.189Z,14.47
2019-03-29T09:41:31.504Z,14.80
2019-03-29T09:43:57.810Z,14.73
2019-03-29T09:46:24.130Z,15.09
2019-03-29T09:48:50.432Z,15.39
2019-03-29T09:51:16.746Z,16.11
2019-03-29T09:53:43.069Z,15.90
2019-03-29T09:56:09.371Z,15.80
2019-03-29T09:58:35.791Z,16.59
2019-03-29T10:01:02.091Z,16.24
2019-03-29T10:03:28.408Z,15.97
2019-03-29T10:05:54.723Z,15.60
2019-03-29T10:08:21.033Z,15.62
2019-03-29T10:10:47.346Z,15.63
2019-03-29T10:13:13.694Z,14.10
2019-03-29T10:15:41.037Z,14.10
2019-03-29T10:18:07.389Z,14.22
2019-03-29T10:20:33.731Z,14.60
2019-03-29T10:23:01.048Z,14.57
2019-03-29T10:25:27.358Z,14.83
2019-03-29T10:27:53.668Z,15.36
2019-03-29T10:30:20.008Z,15.44
2019-03-29T10:32:46.324Z,15.62
2019-03-29T10:35:12.893Z,15.06
2019-03-29T10:37:39.155Z,16.11
2019-03-29T10:40:05.464Z,15.77
2019-03-29T10:42:31.845Z,15.23
2019-03-29T10:44:58.667Z,15.76
2019-03-29T10:47:40.930Z,16.28
2019-03-29T10:49:51.285Z,16.72
2019-03-29T10:52:17.599Z,16.57
2019-03-29T10:54:43.907Z,16.55
2019-03-29T10:57:10.229Z,17.02
2019-03-29T10:59:36.543Z,17.22
2019-03-29T11:02:02.855Z,16.54
2019-03-29T11:04:31.917Z,16.45
2019-03-29T11:06:55.471Z,16.61
2019-03-29T11:09:21.788Z,17.10
2019-03-29T11:11:48.096Z,16.80
2019-03-29T11:14:14.405Z,16.77
2019-03-29T11:16:40.707Z,16.79
2019-03-29T11:19:07.029Z,16.90
2019-03-29T11:21:33.332Z,16.64
2019-03-29T11:23:59.644Z,16.10
2019-03-29T11:26:25.953Z,15.57
2019-03-29T11:28:52.346Z,15.85
2019-03-29T11:31:18.657Z,16.05
2019-03-29T11:33:44.978Z,15.83
2019-03-29T11:36:11.288Z,16.14
2019-03-29T11:38:37.593Z,16.27
2019-03-29T11:41:03.909Z,16.46
2019-03-29T11:43:30.246Z,16.05
2019-03-29T11:45:56.611Z,15.96
2019-03-29T11:48:22.920Z,16.77
2019-03-29T11:50:49.225Z,17.56
2019-03-29T11:53:15.541Z,17.47
2019-03-29T11:55:41.849Z,16.63
2019-03-29T11:58:08.187Z,16.46
2019-03-29T12:00:34.497Z,16.80
2019-03-29T12:03:00.812Z,16.34
2019-03-29T12:05:27.121Z,15.88
2019-03-29T12:07:53.456Z,15.72
2019-03-29T12:10:19.761Z,16.04
2019-03-29T12:12:46.067Z,16.47
2019-03-29T12:15:12.381Z,16.58
2019-03-29T12:17:38.682Z,17.11
2019-03-29T12:20:04.998Z,17.12
2019-03-29T12:22:31.426Z,16.85
2019-03-29T12:24:57.812Z,17.05
2019-03-29T12:27:24.035Z,17.79
2019-03-29T12:29:50.367Z,16.81
2019-03-29T12:32:16.673Z,16.81
2019-03-29T12:34:42.984Z,16.50
2019-03-29T12:37:09.305Z,16.35
2019-03-29T12:39:35.617Z,16.26
2019-03-29T12:42:01.928Z,16.02
2019-03-29T12:44:28.231Z,15.58
2019-03-29T12:46:54.536Z,15.24
2019-03-29T12:49:20.845Z,15.29
2019-03-29T12:51:47.183Z,15.25
2019-03-29T12:54:13.477Z,15.39
2019-03-29T12:56:39.808Z,15.57
2019-03-29T12:59:06.111Z,15.04
2019-03-29T13:01:39.352Z,14.53
2019-03-29T13:03:58.738Z,14.42
2019-03-29T13:06:25.045Z,14.31
2019-03-29T13:08:51.354Z,14.01
2019-03-29T13:11:17.734Z,13.96
2019-03-29T13:13:44.065Z,13.75
2019-03-29T13:16:10.377Z,14.07
2019-03-29T13:18:36.697Z,13.85
2019-03-29T13:21:03.005Z,13.85
2019-03-29T13:23:29.369Z,13.77
2019-03-29T13:25:55.647Z,13.65
2019-03-29T13:28:21.952Z,13.59
2019-03-29T13:30:48.261Z,13.69
2019-03-29T13:33:14.581Z,13.75
2019-03-29T13:35:41.195Z,13.81
2019-03-29T13:38:07.201Z,13.83
2019-03-29T13:40:33.515Z,13.74
2019-03-29T13:42:59.831Z,13.51
2019-03-29T13:45:27.891Z,13.38
2019-03-29T13:47:52.460Z,13.55
2019-03-29T13:50:18.779Z,13.52
2019-03-29T13:52:45.087Z,13.37
2019-03-29T13:55:11.392Z,13.23
2019-03-29T13:57:37.711Z,13.15
2019-03-29T14:00:04.020Z,13.08
2019-03-29T14:02:30.355Z,13.08
2019-03-29T14:04:56.631Z,13.19
2019-03-29T14:07:22.942Z,13.39
2019-03-29T14:09:49.273Z,13.18
2019-03-29T14:12:15.607Z,13.20
2019-03-29T14:14:41.927Z,13.26
2019-03-29T14:17:08.234Z,12.98
2019-03-29T14:19:34.546Z,12.82
2019-03-29T14:22:00.849Z,12.81
2019-03-29T14:24:27.167Z,12.87
2019-03-29T14:26:53.471Z,13.09
2019-03-29T14:29:19.797Z,13.24
2019-03-29T14:31:46.099Z,13.03
2019-03-29T14:34:12.409Z,12.92
2019-03-29T14:36:38.707Z,12.76
2019-03-29T14:39:05.038Z,12.74
2019-03-29T14:41:31.341Z,12.80
2019-03-29T14:43:57.649Z,12.80
2019-03-29T14:46:24.027Z,12.84
2019-03-29T14:48:50.361Z,12.89
2019-03-29T14:51:16.715Z,12.79
2019-03-29T14:53:42.995Z,12.73
2019-03-29T14:56:09.306Z,12.79
2019-03-29T14:58:35.721Z,12.77
2019-03-29T15:01:02.041Z,12.67
2019-03-29T15:03:28.446Z,12.39
2019-03-29T15:05:54.786Z,12.38
2019-03-29T15:08:21.102Z,12.38
2019-03-29T15:10:47.404Z,12.42
2019-03-29T15:13:13.718Z,12.26
2019-03-29T15:15:40.066Z,12.31
2019-03-29T15:18:06.391Z,12.36
2019-03-29T15:20:32.705Z,12.32
2019-03-29T15:22:59.033Z,12.26
2019-03-29T15:25:25.341Z,12.14
2019-03-29T15:27:51.672Z,12.13
2019-03-29T15:30:17.972Z,12.13
2019-03-29T15:32:44.295Z,12.19
2019-03-29T15:35:10.618Z,12.12
2019-03-29T15:37:36.916Z,12.17
2019-03-29T15:40:03.224Z,12.23
2019-03-29T15:42:29.532Z,12.14
2019-03-29T15:44:55.844Z,11.97
2019-03-29T15:47:22.149Z,11.92
2019-03-29T15:49:55.848Z,11.79
2019-03-29T15:52:14.774Z,11.83
2019-03-29T15:54:41.114Z,11.79
2019-03-29T15:57:07.409Z,11.67
2019-03-29T15:59:33.721Z,11.57
2019-03-29T16:02:00.108Z,11.52
2019-03-29T16:04:26.418Z,11.39
2019-03-29T16:06:52.729Z,11.29
2019-03-29T16:09:19.033Z,11.29
2019-03-29T16:11:45.420Z,11.22
2019-03-29T16:14:11.657Z,11.16
2019-03-29T16:16:37.965Z,11.18
2019-03-29T16:19:04.275Z,11.18
2019-03-29T16:21:30.611Z,11.25
2019-03-29T16:23:57.216Z,11.13
2019-03-29T16:26:23.521Z,11.02
2019-03-29T16:28:49.871Z,10.99
2019-03-29T16:31:16.393Z,10.94
2019-03-29T16:33:42.708Z,10.84
2019-03-29T16:36:09.017Z,10.77
2019-03-29T16:38:35.323Z,10.67
2019-03-29T16:41:01.645Z,10.63
2019-03-29T16:43:27.957Z,10.50
2019-03-29T16:45:54.265Z,10.50
2019-03-29T16:48:20.573Z,10.48
2019-03-29T16:50:46.885Z,10.39
2019-03-29T16:53:13.192Z,10.34
2019-03-29T16:55:39.874Z,10.27
2019-03-29T16:58:06.180Z,10.23
2019-03-29T17:00:32.513Z,10.28
2019-03-29T17:02:58.820Z,10.28
2019-03-29T17:05:25.146Z,10.21
2019-03-29T17:07:54.055Z,10.12
2019-03-29T17:10:20.488Z,10.11
2019-03-29T17:12:46.791Z,10.03
2019-03-29T17:15:13.181Z,9.98
2019-03-29T17:17:39.495Z,9.95
2019-03-29T17:20:05.967Z,9.90
2019-03-29T17:22:32.282Z,9.90
2019-03-29T17:24:58.612Z,9.84
2019-03-29T17:27:24.926Z,9.77
2019-03-29T17:29:51.228Z,9.77
2019-03-29T17:32:17.701Z,9.65
2019-03-29T17:34:44.086Z,9.60
2019-03-29T17:37:10.414Z,9.60
2019-03-29T17:39:36.716Z,9.57
2019-03-29T17:42:03.024Z,9.57
2019-03-29T17:44:33.737Z,9.55
2019-03-29T17:46:58.862Z,9.53
2019-03-29T17:49:25.173Z,9.47
2019-03-29T17:51:51.501Z,9.43
2019-03-29T17:54:17.825Z,9.32
2019-03-29T17:56:44.234Z,9.22
2019-03-29T17:59:10.542Z,9.23
2019-03-29T18:01:39.306Z,9.23
2019-03-29T18:04:03.285Z,9.16
2019-03-29T18:06:29.582Z,9.13
2019-03-29T18:08:56.023Z,9.06
2019-03-29T18:11:22.368Z,9.01
2019-03-29T18:13:48.691Z,8.99
2019-03-29T18:16:15.004Z,8.91
2019-03-29T18:18:41.315Z,8.93
2019-03-29T18:21:07.626Z,8.86
2019-03-29T18:23:33.941Z,8.79
2019-03-29T18:26:00.276Z,8.71
2019-03-29T18:28:26.696Z,8.66
2019-03-29T18:30:52.998Z,8.62
2019-03-29T18:33:19.307Z,8.59
2019-03-29T18:35:45.616Z,8.52
2019-03-29T18:38:12.117Z,8.48
2019-03-29T18:40:38.633Z,8.43
2019-03-29T18:43:04.963Z,8.41
2019-03-29T18:45:31.272Z,8.34
2019-03-29T18:47:57.576Z,8.32
2019-03-29T18:50:23.980Z,8.33
2019-03-29T18:52:50.330Z,8.28
2019-03-29T18:55:16.634Z,8.27
2019-03-29T18:57:42.944Z,8.30
2019-03-29T19:00:09.259Z,8.35
2019-03-29T19:02:35.561Z,8.36
2019-03-29T19:05:01.903Z,8.27
2019-03-29T19:07:28.206Z,8.19
2019-03-29T19:09:54.539Z,8.16
2019-03-29T19:12:20.841Z,8.23
2019-03-29T19:14:47.148Z,8.28
2019-03-29T19:17:13.474Z,8.27
2019-03-29T19:19:39.784Z,8.29
2019-03-29T19:22:06.092Z,8.23
2019-03-29T19:24:32.400Z,8.25
2019-03-29T19:26:58.783Z,8.24
2019-03-29T19:29:25.089Z,8.21
2019-03-29T19:31:51.396Z,8.21
2019-03-29T19:34:17.699Z,8.21
2019-03-29T19:36:44.044Z,8.20
2019-03-29T19:39:10.354Z,8.18
2019-03-29T19:41:36.659Z,8.14
2019-03-29T19:44:03.010Z,8.19
2019-03-29T19:46:29.640Z,8.06
2019-03-29T19:48:58.679Z,7.88
2019-03-29T19:51:25.016Z,7.86
2019-03-29T19:53:51.322Z,7.89
2019-03-29T19:56:17.628Z,7.99
2019-03-29T19:58:43.953Z,8.07
2019-03-29T20:01:11.324Z,8.04
2019-03-29T20:03:38.031Z,7.91
2019-03-29T20:06:04.330Z,7.78
2019-03-29T20:08:30.628Z,7.74
2019-03-29T20:10:57.202Z,7.85
2019-03-29T20:13:23.506Z,7.86
2019-03-29T20:15:52.199Z,7.73
2019-03-29T20:18:18.497Z,7.72
2019-03-29T20:20:44.804Z,7.75
2019-03-29T20:23:11.125Z,7.72
2019-03-29T20:25:37.449Z,7.69
2019-03-29T20:28:03.781Z,7.55
2019-03-29T20:30:30.109Z,7.47
2019-03-29T20:32:56.447Z,7.43
2019-03-29T20:35:22.773Z,7.40
2019-03-29T20:37:49.131Z,7.38
2019-03-29T20:40:15.486Z,7.31
2019-03-29T20:42:42.993Z,7.27
2019-03-29T20:45:08.126Z,7.19
2019-03-29T20:47:41.847Z,7.16
2019-03-29T20:50:01.062Z,7.23
2019-03-29T20:52:27.382Z,7.24
2019-03-29T20:54:53.740Z,7.21
2019-03-29T20:57:20.061Z,7.17
2019-03-29T20:59:46.388Z,7.05
2019-03-29T21:02:12.712Z,6.96
2019-03-29T21:04:39.058Z,6.88
2019-03-29T21:07:05.371Z,6.80
2019-03-29T21:09:31.692Z,6.82
2019-03-29T21:11:58.046Z,6.79
2019-03-29T21:14:24.366Z,6.77
2019-03-29T21:16:50.684Z,6.66
2019-03-29T21:19:17.094Z,6.64
2019-03-29T21:21:45.845Z,6.61
2019-03-29T21:24:12.169Z,6.56
2019-03-29T21:26:38.483Z,6.45
2019-03-29T21:29:04.859Z,6.36
2019-03-29T21:31:31.155Z,6.34
2019-03-29T21:33:57.475Z,6.29
2019-03-29T21:36:23.792Z,6.27
2019-03-29T21:38:50.103Z,6.25
2019-03-29T21:41:16.425Z,6.12
2019-03-29T21:43:42.755Z,6.00
2019-03-29T21:46:09.085Z,5.93
2019-03-29T21:48:35.408Z,5.95
2019-03-29T21:51:01.729Z,5.86
2019-03-29T21:53:28.073Z,5.96
2019-03-29T21:55:54.396Z,6.15
2019-03-29T21:58:20.730Z,6.13
2019-03-29T22:00:47.051Z,6.06
2019-03-29T22:03:13.382Z,6.15
2019-03-29T22:05:39.706Z,6.09
2019-03-29T22:08:06.038Z,6.12
2019-03-29T22:10:32.381Z,6.29
2019-03-29T22:12:58.702Z,6.18
2019-03-29T22:15:25.039Z,5.93
2019-03-29T22:17:53.540Z,5.78
2019-03-29T22:20:19.883Z,5.81
2019-03-29T22:22:46.216Z,5.68
2019-03-29T22:25:12.533Z,5.59
2019-03-29T22:27:38.854Z,5.57
2019-03-29T22:30:05.181Z,5.54
2019-03-29T22:32:31.522Z,5.44
2019-03-29T22:34:57.859Z,5.39
2019-03-29T22:37:24.209Z,5.19
2019-03-29T22:39:50.530Z,5.17
2019-03-29T22:42:16.852Z,5.19
2019-03-29T22:44:43.174Z,5.13
2019-03-29T22:47:09.487Z,5.04
2019-03-29T22:49:35.824Z,5.12
2019-03-29T22:52:02.151Z,5.31
2019-03-29T22:54:28.468Z,5.12
2019-03-29T22:56:54.809Z,5.09
2019-03-29T22:59:21.132Z,5.12
2019-03-29T23:01:47.455Z,5.09
2019-03-29T23:04:13.826Z,5.03
2019-03-29T23:06:40.151Z,4.97
2019-03-29T23:09:06.469Z,4.98
2019-03-29T23:11:32.798Z,5.07
2019-03-29T23:13:59.140Z,5.14
2019-03-29T23:16:25.466Z,5.03
2019-03-29T23:19:05.576Z,5.08
2019-03-29T23:21:18.161Z,5.30
2019-03-29T23:23:44.463Z,5.21
2019-03-29T23:26:10.788Z,5.12
2019-03-29T23:28:37.100Z,5.34
2019-03-29T23:31:05.579Z,5.43
2019-03-29T23:33:29.760Z,5.37
2019-03-29T23:35:56.063Z,5.36
2019-03-29T23:38:22.374Z,5.28
2019-03-29T23:40:48.683Z,5.17
2019-03-29T23:43:14.990Z,5.21
2019-03-29T23:45:41.294Z,5.33
2019-03-29T23:48:07.622Z,5.34
2019-03-29T23:50:33.922Z,5.36
2019-03-29T23:53:00.228Z,5.59
2019-03-29T23:55:26.539Z,5.72
2019-03-29T23:57:52.850Z,5.70
